createdAt,value
2022-12-05T00:02:07.719Z,3.77
2022-12-05T00:04:36.433Z,3.78
2022-12-05T00:07:05.041Z,3.77
2022-12-05T00:09:34.201Z,3.77
2022-12-05T00:12:02.729Z,3.77
2022-12-05T00:14:31.498Z,3.78
2022-12-05T00:17:00.080Z,3.79
2022-12-05T00:19:28.690Z,3.78
2022-12-05T00:21:57.803Z,3.79
2022-12-05T00:24:26.516Z,3.80
2022-12-05T00:26:55.027Z,3.80
2022-12-05T00:29:23.567Z,3.79
2022-12-05T00:31:52.262Z,3.78
2022-12-05T00:34:20.870Z,3.79
2022-12-05T00:36:49.763Z,3.80
2022-12-05T00:39:18.351Z,3.81
2022-12-05T00:41:46.905Z,3.83
2022-12-05T00:44:15.515Z,3.83
2022-12-05T00:46:44.018Z,3.84
2022-12-05T00:49:12.980Z,3.86
2022-12-05T00:51:44.539Z,3.88
2022-12-05T00:54:16.282Z,3.89
2022-12-05T00:56:45.377Z,3.90
2022-12-05T00:59:19.288Z,3.91
2022-12-05T01:01:49.829Z,3.91
2022-12-05T01:04:23.352Z,3.92
2022-12-05T01:06:56.026Z,3.92
2022-12-05T01:09:25.291Z,3.92
2022-12-05T01:11:54.349Z,3.92
2022-12-05T01:14:25.325Z,3.92
2022-12-05T01:16:56.079Z,3.91
2022-12-05T01:19:32.205Z,3.92
2022-12-05T01:22:00.868Z,3.91
2022-12-05T01:24:30.561Z,3.91
2022-12-05T01:26:59.311Z,3.90
2022-12-05T01:29:28.265Z,3.91
2022-12-05T01:31:56.932Z,3.90
2022-12-05T01:34:25.532Z,3.91
2022-12-05T01:36:54.150Z,3.93
2022-12-05T01:39:22.743Z,3.93
2022-12-05T01:41:51.570Z,3.92
2022-12-05T01:44:22.783Z,3.92
2022-12-05T01:46:53.388Z,3.88
2022-12-05T01:49:33.117Z,3.85
2022-12-05T01:52:11.792Z,3.83
2022-12-05T01:54:41.008Z,3.81
2022-12-05T01:57:13.127Z,3.79
2022-12-05T01:59:47.756Z,3.79
2022-12-05T02:02:16.602Z,3.79
2022-12-05T02:05:14.390Z,3.79
2022-12-05T02:07:43.664Z,3.80
2022-12-05T02:10:12.556Z,3.80
2022-12-05T02:12:43.708Z,3.79
2022-12-05T02:15:43.836Z,3.78
2022-12-05T02:18:56.649Z,3.77
2022-12-05T02:22:09.036Z,3.77
2022-12-05T02:25:07.368Z,3.72
2022-12-05T02:28:00.625Z,3.70
2022-12-05T02:30:40.503Z,3.69
2022-12-05T02:33:23.604Z,3.68
2022-12-05T02:36:23.822Z,3.67
2022-12-05T02:39:27.710Z,3.66
2022-12-05T02:42:09.219Z,3.64
2022-12-05T02:44:49.031Z,3.62
2022-12-05T02:47:22.715Z,3.61
2022-12-05T02:49:53.057Z,3.59
2022-12-05T02:52:23.221Z,3.59
2022-12-05T02:54:55.800Z,3.58
2022-12-05T02:57:24.832Z,3.58
2022-12-05T02:59:53.408Z,3.58
2022-12-05T03:02:27.178Z,3.59
2022-12-05T03:05:02.280Z,3.60
2022-12-05T03:07:31.790Z,3.60
2022-12-05T03:10:04.604Z,3.59
2022-12-05T03:12:42.373Z,3.59
2022-12-05T03:15:45.499Z,3.60
2022-12-05T03:18:22.792Z,3.62
2022-12-05T03:21:08.489Z,3.62
2022-12-05T03:23:47.610Z,3.62
2022-12-05T03:26:37.661Z,3.60
2022-12-05T03:29:29.392Z,3.58
2022-12-05T03:32:07.035Z,3.55
2022-12-05T03:34:57.238Z,3.54
2022-12-05T03:38:00.315Z,3.53
2022-12-05T03:41:00.684Z,3.50
2022-12-05T03:43:43.528Z,3.47
2022-12-05T03:46:19.133Z,3.46
2022-12-05T03:49:43.068Z,3.47
2022-12-05T03:52:19.207Z,3.43
2022-12-05T03:54:57.295Z,3.43
2022-12-05T03:57:38.380Z,3.41
2022-12-05T04:00:11.640Z,3.40
2022-12-05T04:02:47.522Z,3.39
2022-12-05T04:05:24.749Z,3.39
2022-12-05T04:08:04.382Z,3.36
2022-12-05T04:10:48.670Z,3.33
2022-12-05T04:13:51.009Z,3.31
2022-12-05T04:16:51.888Z,3.28
2022-12-05T04:20:09.716Z,3.25
2022-12-05T04:22:39.666Z,3.24
2022-12-05T04:25:31.924Z,3.24
2022-12-05T04:28:33.297Z,3.25
2022-12-05T04:31:20.501Z,3.26
2022-12-05T04:33:56.420Z,3.26
2022-12-05T04:36:46.734Z,3.27
2022-12-05T04:39:44.514Z,3.27
2022-12-05T04:42:25.946Z,3.27
2022-12-05T04:45:02.453Z,3.29
2022-12-05T04:47:39.321Z,3.31
2022-12-05T04:50:14.402Z,3.31
2022-12-05T04:52:48.910Z,3.30
2022-12-05T04:55:25.922Z,3.29
2022-12-05T04:58:10.308Z,3.28
2022-12-05T05:00:58.416Z,3.26
2022-12-05T05:03:54.249Z,3.27
2022-12-05T05:06:22.818Z,3.27
2022-12-05T05:08:55.722Z,3.25
2022-12-05T05:11:28.083Z,3.25
2022-12-05T05:13:56.650Z,3.26
2022-12-05T05:16:27.952Z,3.27
2022-12-05T05:18:56.836Z,3.27
2022-12-05T05:21:29.622Z,3.28
2022-12-05T05:23:58.737Z,3.30
2022-12-05T05:26:30.055Z,3.32
2022-12-05T05:28:58.837Z,3.34
2022-12-05T05:31:27.885Z,3.36
2022-12-05T05:33:57.400Z,3.39
2022-12-05T05:36:28.568Z,3.41
2022-12-05T05:39:00.310Z,3.43
2022-12-05T05:41:32.706Z,3.44
2022-12-05T05:44:01.808Z,3.46
2022-12-05T05:46:33.980Z,3.47
2022-12-05T05:49:03.599Z,3.49
2022-12-05T05:51:32.607Z,3.50
2022-12-05T05:54:01.190Z,3.51
2022-12-05T05:56:30.488Z,3.52
2022-12-05T05:59:02.568Z,3.55
2022-12-05T06:01:31.537Z,3.58
2022-12-05T06:04:00.225Z,3.58
2022-12-05T06:06:28.854Z,3.58
2022-12-05T06:08:57.430Z,3.58
2022-12-05T06:11:28.123Z,3.57
2022-12-05T06:14:01.280Z,3.57
2022-12-05T06:16:31.690Z,3.57
2022-12-05T06:19:00.341Z,3.59
2022-12-05T06:21:28.894Z,3.61
2022-12-05T06:23:57.599Z,3.63
2022-12-05T06:26:26.416Z,3.66
2022-12-05T06:28:55.030Z,3.68
2022-12-05T06:31:28.469Z,3.68
2022-12-05T06:34:03.830Z,3.69
2022-12-05T06:36:32.508Z,3.69
2022-12-05T06:39:01.189Z,3.68
2022-12-05T06:41:29.872Z,3.68
2022-12-05T06:44:02.299Z,3.67
2022-12-05T06:46:31.476Z,3.68
2022-12-05T06:49:00.112Z,3.70
2022-12-05T06:51:28.732Z,3.73
2022-12-05T06:53:58.421Z,3.74
2022-12-05T06:56:27.141Z,3.75
2022-12-05T06:58:56.393Z,3.75
2022-12-05T07:01:44.020Z,3.75
2022-12-05T07:04:17.729Z,3.75
2022-12-05T07:06:51.000Z,3.76
2022-12-05T07:09:44.434Z,3.76
2022-12-05T07:12:16.295Z,3.75
2022-12-05T07:14:48.075Z,3.73
2022-12-05T07:17:19.041Z,3.73
2022-12-05T07:19:49.668Z,3.72
2022-12-05T07:22:20.529Z,3.72
2022-12-05T07:24:52.852Z,3.72
2022-12-05T07:27:26.842Z,3.73
2022-12-05T07:29:57.292Z,3.73
2022-12-05T07:32:26.397Z,3.75
2022-12-05T07:34:55.676Z,3.75
2022-12-05T07:37:24.508Z,3.76
2022-12-05T07:39:53.616Z,3.79
2022-12-05T07:42:26.869Z,3.80
2022-12-05T07:44:58.016Z,3.83
2022-12-05T07:47:26.574Z,3.87
2022-12-05T07:49:58.746Z,3.91
2022-12-05T07:52:28.596Z,3.94
2022-12-05T07:54:58.507Z,3.97
2022-12-05T07:57:31.396Z,4.00
2022-12-05T08:00:04.581Z,4.03
2022-12-05T08:02:34.909Z,4.06
2022-12-05T08:05:05.683Z,4.08
2022-12-05T08:07:34.280Z,4.11
2022-12-05T08:10:03.060Z,4.14
2022-12-05T08:12:32.148Z,4.17
2022-12-05T08:15:00.778Z,4.20
2022-12-05T08:17:30.880Z,4.22
2022-12-05T08:19:59.723Z,4.26
2022-12-05T08:22:28.519Z,4.29
2022-12-05T08:24:57.063Z,4.31
2022-12-05T08:27:25.673Z,4.33
2022-12-05T08:29:55.018Z,4.37
2022-12-05T08:32:23.714Z,4.39
2022-12-05T08:34:52.441Z,4.41
2022-12-05T08:37:21.054Z,4.43
2022-12-05T08:39:49.578Z,4.43
2022-12-05T08:42:18.161Z,4.44
2022-12-05T08:44:46.746Z,4.45
2022-12-05T08:47:15.288Z,4.47
2022-12-05T08:49:43.884Z,4.52
2022-12-05T08:52:12.489Z,4.56
2022-12-05T08:54:41.034Z,4.58
2022-12-05T08:57:10.754Z,4.60
2022-12-05T08:59:39.376Z,4.63
2022-12-05T09:02:10.552Z,4.66
2022-12-05T09:04:39.286Z,4.69
2022-12-05T09:07:08.418Z,4.71
2022-12-05T09:09:37.153Z,4.73
2022-12-05T09:12:06.021Z,4.75
2022-12-05T09:14:34.607Z,4.77
2022-12-05T09:17:04.396Z,4.79
2022-12-05T09:19:33.273Z,4.81
2022-12-05T09:22:01.984Z,4.85
2022-12-05T09:24:30.650Z,4.88
2022-12-05T09:26:59.168Z,4.91
2022-12-05T09:29:29.590Z,4.94
2022-12-05T09:31:59.075Z,4.96
2022-12-05T09:34:27.798Z,4.98
2022-12-05T09:37:16.375Z,5.01
2022-12-05T09:39:46.863Z,5.02
2022-12-05T09:42:34.574Z,5.05
2022-12-05T09:45:10.297Z,5.07
2022-12-05T09:47:59.742Z,5.09
2022-12-05T09:50:46.243Z,5.10
2022-12-05T09:53:27.748Z,5.13
2022-12-05T09:56:13.891Z,5.14
2022-12-05T09:58:53.194Z,5.15
2022-12-05T10:01:44.221Z,5.15
2022-12-05T10:04:35.147Z,5.17
2022-12-05T10:07:34.013Z,5.17
2022-12-05T10:10:26.804Z,5.18
2022-12-05T10:13:19.825Z,5.18
2022-12-05T10:16:00.401Z,5.20
2022-12-05T10:19:03.730Z,5.22
2022-12-05T10:21:59.933Z,5.25
2022-12-05T10:24:38.896Z,5.27
2022-12-05T10:27:16.109Z,5.25
2022-12-05T10:30:01.801Z,5.26
2022-12-05T10:32:56.860Z,5.28
2022-12-05T10:35:37.291Z,5.28
2022-12-05T10:38:19.819Z,5.30
2022-12-05T10:40:54.212Z,5.35
2022-12-05T10:43:29.295Z,5.38
2022-12-05T10:45:58.754Z,5.40
2022-12-05T10:48:28.147Z,5.42
2022-12-05T10:50:58.658Z,5.45
2022-12-05T10:53:44.376Z,5.47
2022-12-05T10:56:43.738Z,5.49
2022-12-05T10:59:19.878Z,5.49
2022-12-05T11:01:57.187Z,5.50
2022-12-05T11:04:30.418Z,5.50
2022-12-05T11:07:05.261Z,5.52
2022-12-05T11:09:37.321Z,5.55
2022-12-05T11:12:18.407Z,5.57
2022-12-05T11:15:25.634Z,5.60
2022-12-05T11:17:57.955Z,5.65
2022-12-05T11:20:26.568Z,5.68
2022-12-05T11:22:56.763Z,5.72
2022-12-05T11:25:32.742Z,5.75
2022-12-05T11:28:16.267Z,5.79
2022-12-05T11:31:17.156Z,5.84
2022-12-05T11:34:02.217Z,5.88
2022-12-05T11:36:42.602Z,5.89
2022-12-05T11:39:14.353Z,5.89
2022-12-05T11:42:00.276Z,5.90
2022-12-05T11:44:48.005Z,5.92
2022-12-05T11:47:42.929Z,5.96
2022-12-05T11:50:37.370Z,5.98
2022-12-05T11:53:55.987Z,6.03
2022-12-05T11:56:48.714Z,6.06
2022-12-05T12:00:15.508Z,6.09
2022-12-05T12:03:12.441Z,6.11
2022-12-05T12:06:01.098Z,6.12
2022-12-05T12:08:39.698Z,6.13
2022-12-05T12:11:46.569Z,6.15
2022-12-05T12:14:37.300Z,6.17
2022-12-05T12:17:21.835Z,6.18
2022-12-05T12:20:18.769Z,6.18
2022-12-05T12:23:21.615Z,6.18
2022-12-05T12:26:31.178Z,6.19
2022-12-05T12:29:15.406Z,6.21
2022-12-05T12:31:59.272Z,6.21
2022-12-05T12:34:33.628Z,6.19
2022-12-05T12:37:36.033Z,6.17
2022-12-05T12:40:18.533Z,6.15
2022-12-05T12:42:56.556Z,6.14
2022-12-05T12:46:11.308Z,6.14
2022-12-05T12:49:03.947Z,6.16
2022-12-05T12:51:36.661Z,6.16
2022-12-05T12:55:03.366Z,6.20
2022-12-05T12:58:33.841Z,6.21
2022-12-05T13:01:30.225Z,6.22
2022-12-05T13:04:47.361Z,6.21
2022-12-05T13:07:21.378Z,6.23
2022-12-05T13:09:57.104Z,6.21
2022-12-05T13:12:30.701Z,6.20
2022-12-05T13:15:13.860Z,6.19
2022-12-05T13:17:48.198Z,6.19
2022-12-05T13:20:21.836Z,6.20
2022-12-05T13:22:53.727Z,6.20
2022-12-05T13:25:27.429Z,6.19
2022-12-05T13:27:59.851Z,6.19
2022-12-05T13:30:31.212Z,6.17
2022-12-05T13:33:09.175Z,6.16
2022-12-05T13:35:57.749Z,6.12
2022-12-05T13:38:58.472Z,6.09
2022-12-05T13:42:04.525Z,6.07
2022-12-05T13:44:42.611Z,6.04
2022-12-05T13:47:20.572Z,6.03
2022-12-05T13:50:00.944Z,6.01
2022-12-05T13:52:32.790Z,6.00
2022-12-05T13:55:30.769Z,5.98
2022-12-05T13:58:24.970Z,5.96
2022-12-05T14:01:26.215Z,5.94
2022-12-05T14:03:59.815Z,5.91
2022-12-05T14:06:40.423Z,5.89
2022-12-05T14:09:17.932Z,5.89
2022-12-05T14:12:11.685Z,5.88
2022-12-05T14:14:55.695Z,5.88
2022-12-05T14:17:43.727Z,5.87
2022-12-05T14:20:30.524Z,5.85
2022-12-05T14:23:17.355Z,5.84
2022-12-05T14:26:35.424Z,5.85
2022-12-05T14:29:25.322Z,5.86
2022-12-05T14:32:33.035Z,5.87
2022-12-05T14:35:01.511Z,5.89
2022-12-05T14:37:56.798Z,5.89
2022-12-05T14:40:43.977Z,5.88
2022-12-05T14:43:34.278Z,5.87
2022-12-05T14:46:15.858Z,5.86
2022-12-05T14:48:47.979Z,5.87
2022-12-05T14:51:36.830Z,5.87
2022-12-05T14:54:12.872Z,5.88
2022-12-05T14:57:16.464Z,5.89
2022-12-05T15:00:13.060Z,5.90
2022-12-05T15:02:47.142Z,5.90
2022-12-05T15:08:15.996Z,5.93
2022-12-05T15:10:45.803Z,5.95
2022-12-05T15:13:28.496Z,5.95
2022-12-05T15:16:08.212Z,5.96
2022-12-05T15:18:47.132Z,5.98
2022-12-05T15:21:47.064Z,6.00
2022-12-05T15:24:19.024Z,6.00
2022-12-05T15:26:57.038Z,6.01
2022-12-05T15:29:29.186Z,6.03
2022-12-05T15:32:13.062Z,6.03
2022-12-05T15:34:52.228Z,6.02
2022-12-05T15:37:35.009Z,6.03
2022-12-05T15:40:14.342Z,6.03
2022-12-05T15:42:55.701Z,6.02
2022-12-05T15:45:29.738Z,5.99
2022-12-05T15:48:07.391Z,5.98
2022-12-05T15:50:39.614Z,5.95
2022-12-05T15:53:31.138Z,5.94
2022-12-05T15:56:24.685Z,5.93
2022-12-05T15:59:49.370Z,5.93
2022-12-05T16:02:37.301Z,5.94
2022-12-05T16:05:18.130Z,5.95
2022-12-05T16:07:50.746Z,5.95
2022-12-05T16:10:23.428Z,5.96
2022-12-05T16:12:54.718Z,5.98
2022-12-05T16:15:28.834Z,6.00
2022-12-05T16:18:02.144Z,6.02
2022-12-05T16:20:37.054Z,6.04
2022-12-05T16:23:30.730Z,6.06
2022-12-05T16:26:20.892Z,6.07
2022-12-05T16:29:02.202Z,6.08
2022-12-05T16:31:34.073Z,6.09
2022-12-05T16:34:07.654Z,6.10
2022-12-05T16:36:36.643Z,6.11
2022-12-05T16:39:17.794Z,6.10
2022-12-05T16:41:50.143Z,6.10
2022-12-05T16:44:28.498Z,6.09
2022-12-05T16:46:58.329Z,6.08
2022-12-05T16:49:34.658Z,6.06
2022-12-05T16:52:09.179Z,6.04
2022-12-05T16:54:38.006Z,6.01
2022-12-05T16:57:06.928Z,5.98
2022-12-05T16:59:38.708Z,5.97
2022-12-05T17:02:18.957Z,5.96
2022-12-05T17:04:47.658Z,5.96
2022-12-05T17:07:16.298Z,5.97
2022-12-05T17:09:44.847Z,5.99
2022-12-05T17:12:24.100Z,6.02
2022-12-05T17:14:52.670Z,6.04
2022-12-05T17:17:21.897Z,6.05
2022-12-05T17:19:50.650Z,6.06
2022-12-05T17:22:19.365Z,6.08
2022-12-05T17:24:47.902Z,6.12
2022-12-05T17:27:16.501Z,6.15
2022-12-05T17:29:45.158Z,6.18
2022-12-05T17:32:13.667Z,6.21
2022-12-05T17:34:42.278Z,6.24
2022-12-05T17:37:10.852Z,6.27
2022-12-05T17:39:39.409Z,6.28
2022-12-05T17:42:08.568Z,6.30
2022-12-05T17:44:37.483Z,6.32
2022-12-05T17:47:08.161Z,6.33
2022-12-05T17:49:36.977Z,6.34
2022-12-05T17:52:22.369Z,6.34
2022-12-05T17:54:51.376Z,6.34
2022-12-05T17:57:20.036Z,6.34
2022-12-05T17:59:48.739Z,6.34
2022-12-05T18:02:20.226Z,6.36
2022-12-05T18:04:49.309Z,6.37
2022-12-05T18:07:17.841Z,6.37
2022-12-05T18:09:46.454Z,6.38
2022-12-05T18:12:15.166Z,6.38
2022-12-05T18:14:43.714Z,6.38
2022-12-05T18:17:12.263Z,6.38
2022-12-05T18:19:40.836Z,6.39
2022-12-05T18:22:09.491Z,6.40
2022-12-05T18:24:38.495Z,6.40
2022-12-05T18:27:07.461Z,6.40
2022-12-05T18:29:35.990Z,6.38
2022-12-05T18:32:04.639Z,6.38
2022-12-05T18:34:33.295Z,6.38
2022-12-05T18:37:02.151Z,6.37
2022-12-05T18:39:30.812Z,6.37
2022-12-05T18:41:59.412Z,6.38
2022-12-05T18:44:28.164Z,6.37
2022-12-05T18:46:56.712Z,6.39
2022-12-05T18:49:25.351Z,6.40
2022-12-05T18:51:53.919Z,6.41
2022-12-05T18:54:22.504Z,6.42
2022-12-05T18:56:52.830Z,6.43
2022-12-05T18:59:22.395Z,6.42
2022-12-05T19:01:51.724Z,6.40
2022-12-05T19:04:22.724Z,6.40
2022-12-05T19:06:57.921Z,6.40
2022-12-05T19:09:30.603Z,6.39
2022-12-05T19:12:00.906Z,6.38
2022-12-05T19:14:32.960Z,6.39
2022-12-05T19:17:01.709Z,6.40
2022-12-05T19:19:30.436Z,6.40
2022-12-05T19:21:59.427Z,6.43
2022-12-05T19:24:28.008Z,6.45
2022-12-05T19:26:56.686Z,6.46
2022-12-05T19:29:25.262Z,6.45
2022-12-05T19:31:53.865Z,6.44
2022-12-05T19:34:24.417Z,6.40
2022-12-05T19:36:53.039Z,6.36
2022-12-05T19:39:27.135Z,6.35
2022-12-05T19:41:59.408Z,6.34
2022-12-05T19:44:28.330Z,6.32
2022-12-05T19:46:56.934Z,6.32
2022-12-05T19:49:25.583Z,6.30
2022-12-05T19:51:54.248Z,6.29
2022-12-05T19:54:24.165Z,6.29
2022-12-05T19:56:58.354Z,6.29
2022-12-05T19:59:27.084Z,6.29
2022-12-05T20:01:55.783Z,6.29
2022-12-05T20:04:24.502Z,6.29
2022-12-05T20:06:53.116Z,6.30
2022-12-05T20:09:23.065Z,6.27
2022-12-05T20:11:56.051Z,6.26
2022-12-05T20:14:25.964Z,6.26
2022-12-05T20:16:55.266Z,6.27
2022-12-05T20:19:24.822Z,6.27
2022-12-05T20:21:55.610Z,6.28
2022-12-05T20:24:24.626Z,6.30
2022-12-05T20:26:53.364Z,6.30
2022-12-05T20:29:21.972Z,6.31
2022-12-05T20:31:53.778Z,6.31
2022-12-05T20:34:22.338Z,6.31
2022-12-05T20:36:53.137Z,6.32
2022-12-05T20:39:21.792Z,6.32
2022-12-05T20:41:50.841Z,6.30
2022-12-05T20:44:20.133Z,6.28
2022-12-05T20:46:52.999Z,6.25
2022-12-05T20:49:21.600Z,6.23
2022-12-05T20:51:50.453Z,6.22
2022-12-05T20:54:19.339Z,6.22
2022-12-05T20:56:49.255Z,6.20
2022-12-05T20:59:19.106Z,6.20
2022-12-05T21:01:49.468Z,6.19
2022-12-05T21:04:18.158Z,6.17
2022-12-05T21:06:47.751Z,6.15
2022-12-05T21:09:28.208Z,6.15
2022-12-05T21:14:45.051Z,6.15
2022-12-05T21:17:14.065Z,6.14
2022-12-05T21:19:43.360Z,6.13
2022-12-05T21:22:11.982Z,6.10
2022-12-05T21:24:40.699Z,6.06
2022-12-05T21:27:09.199Z,6.03
2022-12-05T21:29:37.726Z,5.99
2022-12-05T21:32:06.877Z,5.96
2022-12-05T21:34:35.699Z,5.93
2022-12-05T21:37:04.278Z,5.90
2022-12-05T21:39:32.869Z,5.87
2022-12-05T21:42:01.399Z,5.85
2022-12-05T21:44:29.986Z,5.83
2022-12-05T21:46:58.510Z,5.82
2022-12-05T21:49:27.076Z,5.82
2022-12-05T21:51:55.636Z,5.82
2022-12-05T21:54:24.184Z,5.83
2022-12-05T21:56:54.826Z,5.84
2022-12-05T21:59:23.347Z,5.84
2022-12-05T22:01:52.124Z,5.86
2022-12-05T22:04:20.824Z,5.87
2022-12-05T22:06:49.371Z,5.87
2022-12-05T22:09:22.115Z,5.87
2022-12-05T22:11:50.884Z,5.87
2022-12-05T22:14:19.471Z,5.89
2022-12-05T22:16:48.103Z,5.90
2022-12-05T22:19:17.335Z,5.90
2022-12-05T22:21:46.017Z,5.87
2022-12-05T22:24:19.545Z,5.83
2022-12-05T22:26:48.066Z,5.79
2022-12-05T22:29:17.633Z,5.75
2022-12-05T22:31:46.322Z,5.73
2022-12-05T22:34:16.094Z,5.72
2022-12-05T22:36:44.684Z,5.71
2022-12-05T22:39:13.638Z,5.71
2022-12-05T22:41:42.278Z,5.71
2022-12-05T22:44:11.059Z,5.71
2022-12-05T22:46:39.813Z,5.72
2022-12-05T22:49:10.890Z,5.73
2022-12-05T22:51:39.482Z,5.76
2022-12-05T22:54:08.985Z,5.80
2022-12-05T22:56:38.014Z,5.84
2022-12-05T22:59:09.218Z,5.87
2022-12-05T23:01:41.568Z,5.91
2022-12-05T23:04:11.630Z,5.94
2022-12-05T23:06:40.282Z,5.96
2022-12-05T23:09:11.050Z,5.99
2022-12-05T23:11:39.876Z,6.01
2022-12-05T23:14:08.607Z,6.02
2022-12-05T23:16:37.541Z,6.02
2022-12-05T23:19:06.175Z,6.01
2022-12-05T23:21:38.738Z,6.00
2022-12-05T23:24:10.961Z,6.00
2022-12-05T23:26:46.120Z,6.00
2022-12-05T23:29:15.120Z,6.00
2022-12-05T23:31:44.107Z,6.01
2022-12-05T23:34:12.891Z,6.02
2022-12-05T23:36:41.621Z,6.03
2022-12-05T23:39:10.533Z,6.03
2022-12-05T23:41:39.141Z,6.04
2022-12-05T23:44:07.676Z,6.04
2022-12-05T23:46:36.292Z,6.04
2022-12-05T23:49:04.950Z,6.04
2022-12-05T23:51:34.127Z,6.03
2022-12-05T23:54:02.807Z,6.04
2022-12-05T23:56:34.105Z,6.04
2022-12-05T23:59:06.352Z,6.04
